BBC Congo — V2EL3 — position and weather

sailwx.info

Track history (hours):
 
Tides and Currents Weather Stations Pressure Air Temp Water Temp Dewpoint Dewpoint Depression Visibility Wind Speed Wind Dir Waves Ship Positions

BBC Congo

Last reported at 2016-Nov-19 23:33 UTC. Time now 2016-Dec-07 18:27 UTC.
Position N 38°20' E 012°39'.
Warning: this ship's position is 17 days out of date.

Length 144 m; draft 6.9 m.

Type: Ship. MMSI: 305466000.

Date/timePositionNaut miles runAvg speedWind from/ knotsBaromVisibWave heightAir tempDewpointWater temp
2016-Nov-19 23:33N 38°20' E 012°39'1413.8
2016-Nov-19 22:33N 38°22' E 012°56'2713.6
2016-Nov-19 20:33N 38°26' E 013°31'1413.3
2016-Nov-19 19:31N 38°27' E 013°48'2713.8
2016-Nov-19 17:32N 38°29' E 014°23'1313.7
2016-Nov-19 16:33N 38°30' E 014°40'2713.5
2016-Nov-19 14:33N 38°36' E 015°14'  
2016-Nov-16 23:26N 42°37' E 010°14'3110.6
2016-Nov-16 20:33N 43°07' E 010°06'1312.7
2016-Nov-16 19:33N 43°19' E 010°09'1212.2
2016-Nov-16 18:33N 43°31' E 010°14'5 4.7
2016-Nov-16 17:31N 43°34' E 010°18'0 0.0
2016-Nov-16 16:28N 43°34' E 010°18'0 0.0
2016-Nov-16 12:13N 43°34' E 010°18'0 0.0
2016-Nov-16 09:31N 43°34' E 010°18'0 0.0
2016-Nov-16 08:28N 43°34' E 010°18'0 0.0
2016-Nov-16 07:28N 43°34' E 010°18'0 0.0
2016-Nov-16 06:31N 43°34' E 010°18'0 0.0
2016-Nov-16 04:31N 43°34' E 010°18'0 0.0
2016-Nov-16 03:31N 43°34' E 010°18'0 0.0
2016-Nov-16 02:31N 43°34' E 010°18'0 0.0
2016-Nov-16 01:31N 43°34' E 010°18'0 0.0
2016-Nov-15 21:22N 43°34' E 010°18'0 0.0
2016-Nov-15 19:28N 43°34' E 010°18'0 0.0
2016-Nov-15 18:31N 43°34' E 010°18'0 0.0
2016-Nov-15 13:31N 43°34' E 010°18'0 0.0
2016-Nov-15 12:31N 43°34' E 010°18'0 0.0
2016-Nov-15 11:22N 43°34' E 010°18'0 0.0
2016-Nov-15 10:28N 43°34' E 010°18'0 0.0
2016-Nov-15 07:31N 43°34' E 010°18'0 0.0
2016-Nov-15 06:28N 43°34' E 010°18'0 0.0
2016-Nov-15 05:52N 43°34' E 010°18'0 0.0
2016-Nov-15 03:31N 43°34' E 010°18'0 0.0
2016-Nov-15 02:33N 43°34' E 010°18'6 3.0
2016-Nov-15 00:33N 43°30' E 010°12'8 9.0
2016-Nov-14 23:43N 43°36' E 010°06'26 6.2
2016-Nov-14 19:33N 44°02' E 010°03'0 0.0
2016-Nov-14 17:30N 44°02' E 010°03'0 0.0
2016-Nov-14 16:30N 44°02' E 010°03'0 0.0
2016-Nov-14 15:21N 44°02' E 010°03'0 0.0
2016-Nov-14 11:33N 44°02' E 010°03'  
Track history (hours):
 
Tides and Currents Weather Stations Pressure Air Temp Water Temp Dewpoint Dewpoint Depression Visibility Wind Speed Wind Dir Waves Ship Positions

BBC Congo

Last reported at 2016-Nov-19 23:33 UTC. Time now 2016-Dec-07 18:27 UTC.
Position N 38°20' E 012°39'.
Warning: this ship's position is 17 days out of date.

Length 144 m; draft 6.9 m.

Type: Ship. MMSI: 305466000.

Date/timePositionNaut miles runAvg speedWind from/ knotsBaromVisibWave heightAir tempDewpointWater temp
2016-Nov-19 23:33N 38°20' E 012°39'1413.8
2016-Nov-19 22:33N 38°22' E 012°56'2713.6
2016-Nov-19 20:33N 38°26' E 013°31'1413.3
2016-Nov-19 19:31N 38°27' E 013°48'2713.8
2016-Nov-19 17:32N 38°29' E 014°23'1313.7
2016-Nov-19 16:33N 38°30' E 014°40'2713.5
2016-Nov-19 14:33N 38°36' E 015°14'  
2016-Nov-16 23:26N 42°37' E 010°14'3110.6
2016-Nov-16 20:33N 43°07' E 010°06'1312.7
2016-Nov-16 19:33N 43°19' E 010°09'1212.2
2016-Nov-16 18:33N 43°31' E 010°14'5 4.7
2016-Nov-16 17:31N 43°34' E 010°18'0 0.0
2016-Nov-16 16:28N 43°34' E 010°18'0 0.0
2016-Nov-16 12:13N 43°34' E 010°18'0 0.0
2016-Nov-16 09:31N 43°34' E 010°18'0 0.0
2016-Nov-16 08:28N 43°34' E 010°18'0 0.0
2016-Nov-16 07:28N 43°34' E 010°18'0 0.0
2016-Nov-16 06:31N 43°34' E 010°18'0 0.0
2016-Nov-16 04:31N 43°34' E 010°18'0 0.0
2016-Nov-16 03:31N 43°34' E 010°18'0 0.0
2016-Nov-16 02:31N 43°34' E 010°18'0 0.0
2016-Nov-16 01:31N 43°34' E 010°18'0 0.0
2016-Nov-15 21:22N 43°34' E 010°18'0 0.0
2016-Nov-15 19:28N 43°34' E 010°18'0 0.0
2016-Nov-15 18:31N 43°34' E 010°18'0 0.0
2016-Nov-15 13:31N 43°34' E 010°18'0 0.0
2016-Nov-15 12:31N 43°34' E 010°18'0 0.0
2016-Nov-15 11:22N 43°34' E 010°18'0 0.0
2016-Nov-15 10:28N 43°34' E 010°18'0 0.0
2016-Nov-15 07:31N 43°34' E 010°18'0 0.0
2016-Nov-15 06:28N 43°34' E 010°18'0 0.0
2016-Nov-15 05:52N 43°34' E 010°18'0 0.0
2016-Nov-15 03:31N 43°34' E 010°18'0 0.0
2016-Nov-15 02:33N 43°34' E 010°18'6 3.0
2016-Nov-15 00:33N 43°30' E 010°12'8 9.0
2016-Nov-14 23:43N 43°36' E 010°06'26 6.2
2016-Nov-14 19:33N 44°02' E 010°03'0 0.0
2016-Nov-14 17:30N 44°02' E 010°03'0 0.0
2016-Nov-14 16:30N 44°02' E 010°03'0 0.0
2016-Nov-14 15:21N 44°02' E 010°03'0 0.0
2016-Nov-14 11:33N 44°02' E 010°03'  

Dump ship's entire track history